createdAt,value
2017-02-19T00:00:02.856Z,0
2017-02-19T00:01:17.386Z,0
2017-02-19T00:02:17.385Z,0
2017-02-19T00:03:02.919Z,0
2017-02-19T00:04:17.445Z,0
2017-02-19T00:05:02.948Z,0
2017-02-19T00:06:31.584Z,0
2017-02-19T00:07:02.970Z,0
2017-02-19T00:08:17.500Z,0
2017-02-19T00:09:17.525Z,0
2017-02-19T00:10:03.038Z,0
2017-02-19T00:11:03.077Z,0
2017-02-19T00:12:03.083Z,0
2017-02-19T00:13:32.100Z,0
2017-02-19T00:14:03.096Z,0
2017-02-19T00:15:03.101Z,0
2017-02-19T00:16:03.120Z,0
2017-02-19T00:17:03.156Z,0
2017-02-19T00:18:03.172Z,0
2017-02-19T00:19:03.180Z,0
2017-02-19T00:20:03.217Z,0
2017-02-19T00:21:03.223Z,0
2017-02-19T00:23:17.794Z,0
2017-02-19T00:24:02.881Z,0
2017-02-19T00:26:02.922Z,0
2017-02-19T00:27:03.338Z,0
2017-02-19T00:28:03.346Z,0
2017-02-19T00:29:03.363Z,0
2017-02-19T00:30:02.991Z,0
2017-02-19T00:31:03.393Z,0
2017-02-19T00:32:32.440Z,0
2017-02-19T00:34:03.439Z,0
2017-02-19T00:35:17.990Z,0
2017-02-19T00:36:03.497Z,0
2017-02-19T00:37:03.488Z,0
2017-02-19T00:38:18.051Z,0
2017-02-19T00:39:03.545Z,0
2017-02-19T00:40:03.534Z,0
2017-02-19T00:41:18.068Z,0
2017-02-19T00:42:03.584Z,0
2017-02-19T00:43:03.585Z,0
2017-02-19T00:44:03.606Z,0
2017-02-19T00:45:18.150Z,0
2017-02-19T00:46:03.665Z,0
2017-02-19T00:47:03.701Z,0
2017-02-19T00:48:18.205Z,0
2017-02-19T00:49:03.723Z,0
2017-02-19T00:50:03.733Z,0
2017-02-19T00:51:18.254Z,0
2017-02-19T00:52:18.301Z,0
2017-02-19T00:53:03.794Z,0
2017-02-19T00:54:03.799Z,0
2017-02-19T00:55:32.836Z,0
2017-02-19T00:56:03.824Z,0
2017-02-19T00:57:18.022Z,0
2017-02-19T00:58:03.858Z,0
2017-02-19T00:59:03.864Z,0
2017-02-19T01:00:03.881Z,0
2017-02-19T01:01:03.920Z,0
2017-02-19T01:02:18.447Z,0
2017-02-19T01:04:03.961Z,0
2017-02-19T01:05:03.959Z,0
2017-02-19T01:06:03.988Z,0
2017-02-19T01:07:04.021Z,0
2017-02-19T01:08:04.048Z,0
2017-02-19T01:09:04.060Z,0
2017-02-19T01:10:04.093Z,0
2017-02-19T01:11:04.090Z,0
2017-02-19T01:12:18.625Z,0
2017-02-19T01:13:18.638Z,0
2017-02-19T01:14:04.151Z,0
2017-02-19T01:15:04.155Z,0
2017-02-19T01:16:04.184Z,0
2017-02-19T01:18:18.725Z,0
2017-02-19T01:19:04.225Z,0
2017-02-19T01:20:04.256Z,0
2017-02-19T01:21:18.382Z,0
2017-02-19T01:22:04.283Z,0
2017-02-19T01:23:04.318Z,0
2017-02-19T01:24:04.320Z,0
2017-02-19T01:25:04.327Z,0
2017-02-19T01:26:04.359Z,0
2017-02-19T01:27:04.358Z,0
2017-02-19T01:28:04.377Z,0
2017-02-19T01:29:18.908Z,0
2017-02-19T01:30:04.413Z,0
2017-02-19T01:31:04.425Z,0
2017-02-19T01:32:18.970Z,0
2017-02-19T01:34:04.458Z,0
2017-02-19T01:35:04.481Z,0
2017-02-19T01:36:19.014Z,0
2017-02-19T01:37:04.535Z,0
2017-02-19T01:38:19.085Z,0
2017-02-19T01:39:04.566Z,0
2017-02-19T01:40:04.623Z,0
2017-02-19T01:41:18.720Z,0
2017-02-19T01:42:33.648Z,0
2017-02-19T01:43:04.641Z,0
2017-02-19T01:44:19.188Z,0
2017-02-19T01:45:04.679Z,0
2017-02-19T01:46:04.687Z,0
2017-02-19T01:47:04.709Z,0
2017-02-19T01:48:04.718Z,0
2017-02-19T01:49:04.775Z,0
2017-02-19T01:50:04.762Z,0
2017-02-19T01:51:04.807Z,0
2017-02-19T01:52:04.803Z,0
2017-02-19T01:53:04.830Z,0
2017-02-19T01:54:04.855Z,0
2017-02-19T01:55:19.346Z,0
2017-02-19T01:56:04.874Z,0
2017-02-19T01:57:04.874Z,0
2017-02-19T01:58:04.919Z,0
2017-02-19T01:59:19.411Z,0
2017-02-19T02:00:04.957Z,0
2017-02-19T02:01:04.974Z,0
2017-02-19T02:02:04.976Z,0
2017-02-19T02:03:04.603Z,0
2017-02-19T02:04:05.041Z,0
2017-02-19T02:05:19.541Z,0
2017-02-19T02:07:05.053Z,0
2017-02-19T02:08:05.077Z,0
2017-02-19T02:09:05.094Z,0
2017-02-19T02:10:05.098Z,0
2017-02-19T02:11:19.634Z,0
2017-02-19T02:12:05.146Z,0
2017-02-19T02:13:19.668Z,0
2017-02-19T02:14:05.161Z,0
2017-02-19T02:15:04.833Z,0
2017-02-19T02:16:34.236Z,0
2017-02-19T02:17:05.257Z,0
2017-02-19T02:18:05.256Z,0
2017-02-19T02:19:05.257Z,0
2017-02-19T02:20:04.884Z,0
2017-02-19T02:21:05.276Z,0
2017-02-19T02:22:19.833Z,0
2017-02-19T02:23:19.875Z,0
2017-02-19T02:24:05.361Z,0
2017-02-19T02:26:05.393Z,0
2017-02-19T02:27:05.411Z,0
2017-02-19T02:28:05.412Z,0
2017-02-19T02:29:05.571Z,0
2017-02-19T02:30:05.454Z,0
2017-02-19T02:31:05.460Z,0
2017-02-19T02:32:19.987Z,0
2017-02-19T02:33:05.596Z,0
2017-02-19T02:34:05.534Z,0
2017-02-19T02:35:05.145Z,0
2017-02-19T02:36:05.557Z,0
2017-02-19T02:37:05.582Z,0
2017-02-19T02:38:05.589Z,0
2017-02-19T02:39:05.594Z,0
2017-02-19T02:40:05.239Z,0
2017-02-19T02:41:20.171Z,0
2017-02-19T02:42:05.640Z,0
2017-02-19T02:43:05.679Z,0
2017-02-19T02:44:19.813Z,0
2017-02-19T02:45:05.341Z,0
2017-02-19T02:46:05.722Z,0
2017-02-19T02:47:05.372Z,0
2017-02-19T02:48:20.263Z,0
2017-02-19T02:49:05.787Z,0
2017-02-19T02:50:05.417Z,0
2017-02-19T02:51:20.331Z,0
2017-02-19T02:52:20.365Z,0
2017-02-19T02:53:20.653Z,0
2017-02-19T02:54:05.863Z,0
2017-02-19T02:55:05.895Z,0
2017-02-19T02:56:05.891Z,0
2017-02-19T02:57:05.923Z,0
2017-02-19T02:58:05.966Z,0
2017-02-19T02:59:05.936Z,0
2017-02-19T03:00:05.572Z,0
2017-02-19T03:01:05.993Z,0
2017-02-19T03:02:05.638Z,0
2017-02-19T03:03:06.032Z,0
2017-02-19T03:04:20.159Z,0
2017-02-19T03:05:05.669Z,0
2017-02-19T03:06:06.071Z,0
2017-02-19T03:07:06.075Z,0
2017-02-19T03:08:20.630Z,0
2017-02-19T03:09:06.126Z,0
2017-02-19T03:11:20.656Z,0
2017-02-19T03:12:06.172Z,0
2017-02-19T03:13:06.183Z,0
2017-02-19T03:14:06.232Z,0
2017-02-19T03:15:06.239Z,0
2017-02-19T03:16:06.254Z,0
2017-02-19T03:17:06.260Z,0
2017-02-19T03:18:06.288Z,0
2017-02-19T03:20:06.295Z,0
2017-02-19T03:21:20.462Z,0
2017-02-19T03:22:05.949Z,0
2017-02-19T03:23:06.350Z,0
2017-02-19T03:24:06.374Z,0
2017-02-19T03:26:06.406Z,0
2017-02-19T03:27:20.965Z,0
2017-02-19T03:28:06.442Z,0
2017-02-19T03:29:06.477Z,0
2017-02-19T03:30:06.507Z,0
2017-02-19T03:31:06.517Z,0
2017-02-19T03:32:06.137Z,0
2017-02-19T03:34:06.550Z,0
2017-02-19T03:35:06.603Z,0
2017-02-19T03:36:06.192Z,0
2017-02-19T03:37:06.616Z,0
2017-02-19T03:38:21.142Z,0
2017-02-19T03:39:06.653Z,0
2017-02-19T03:40:06.656Z,0
2017-02-19T03:41:06.677Z,0
2017-02-19T03:43:06.725Z,0
2017-02-19T03:44:06.721Z,0
2017-02-19T03:45:06.360Z,0
2017-02-19T03:46:06.382Z,0
2017-02-19T03:47:06.794Z,0
2017-02-19T03:48:06.813Z,0
2017-02-19T03:49:06.810Z,0
2017-02-19T03:50:06.819Z,0
2017-02-19T03:51:21.358Z,0
2017-02-19T03:52:06.848Z,0
2017-02-19T03:53:21.000Z,0
2017-02-19T03:54:06.527Z,0
2017-02-19T03:55:06.912Z,0
2017-02-19T03:56:21.449Z,0
2017-02-19T03:57:06.952Z,0
2017-02-19T03:58:21.483Z,0
2017-02-19T03:59:06.972Z,0
2017-02-19T04:00:07.027Z,0
2017-02-19T04:01:21.134Z,0
2017-02-19T04:02:21.159Z,0
2017-02-19T04:03:07.057Z,0
2017-02-19T04:04:07.074Z,0
2017-02-19T04:05:07.083Z,0
2017-02-19T04:06:07.093Z,0
2017-02-19T04:07:21.255Z,0
2017-02-19T04:08:07.122Z,0
2017-02-19T04:09:07.149Z,0
2017-02-19T04:10:07.183Z,0
2017-02-19T04:11:07.197Z,0
2017-02-19T04:12:07.197Z,0
2017-02-19T04:13:07.235Z,0
2017-02-19T04:14:07.221Z,0
2017-02-19T04:15:07.239Z,0
2017-02-19T04:16:06.890Z,0
2017-02-19T04:17:07.283Z,0
2017-02-19T04:19:07.317Z,0
2017-02-19T04:20:07.336Z,0
2017-02-19T04:21:21.882Z,0
2017-02-19T04:22:07.363Z,0
2017-02-19T04:23:21.907Z,0
2017-02-19T04:24:07.418Z,0
2017-02-19T04:27:07.451Z,0
2017-02-19T04:28:07.463Z,0
2017-02-19T04:30:07.510Z,0
2017-02-19T04:31:07.532Z,0
2017-02-19T04:32:07.544Z,0
2017-02-19T04:33:22.078Z,0
2017-02-19T04:34:07.605Z,0
2017-02-19T04:36:22.117Z,0
2017-02-19T04:37:07.649Z,0
2017-02-19T04:38:07.650Z,0
2017-02-19T04:39:21.782Z,0
2017-02-19T04:40:07.288Z,0
2017-02-19T04:41:07.695Z,0
2017-02-19T04:42:07.744Z,0
2017-02-19T04:43:07.770Z,0
2017-02-19T04:44:07.749Z,0
2017-02-19T04:45:22.293Z,0
2017-02-19T04:46:22.336Z,0
2017-02-19T04:48:22.320Z,0
2017-02-19T04:49:22.357Z,0
2017-02-19T04:50:07.487Z,0
2017-02-19T04:51:07.901Z,0
2017-02-19T04:52:36.915Z,0
2017-02-19T04:53:07.911Z,0
2017-02-19T04:54:22.435Z,0
2017-02-19T04:55:36.963Z,0
2017-02-19T04:56:07.977Z,0
2017-02-19T04:57:07.972Z,0
2017-02-19T04:58:07.586Z,0
2017-02-19T04:59:07.989Z,0
2017-02-19T05:00:22.532Z,0
2017-02-19T05:01:07.643Z,0
2017-02-19T05:02:07.667Z,0
2017-02-19T05:03:08.073Z,0
2017-02-19T05:04:08.089Z,0
2017-02-19T05:05:08.124Z,0
2017-02-19T05:06:08.139Z,0
2017-02-19T05:07:08.140Z,0
2017-02-19T05:08:08.167Z,0
2017-02-19T05:09:07.791Z,0
2017-02-19T05:10:08.207Z,0
2017-02-19T05:11:08.217Z,0
2017-02-19T05:12:08.201Z,0
2017-02-19T05:13:08.238Z,0
2017-02-19T05:14:08.287Z,0
2017-02-19T05:15:08.288Z,0
2017-02-19T05:16:22.810Z,0
2017-02-19T05:17:08.302Z,0
2017-02-19T05:18:08.304Z,0
2017-02-19T05:19:22.848Z,0
2017-02-19T05:20:08.358Z,0
2017-02-19T05:21:08.367Z,0
2017-02-19T05:22:08.380Z,0
2017-02-19T05:23:37.420Z,0
2017-02-19T05:24:22.955Z,0
2017-02-19T05:25:08.425Z,0
2017-02-19T05:26:22.982Z,0
2017-02-19T05:27:08.083Z,0
2017-02-19T05:28:08.498Z,0
2017-02-19T05:29:08.522Z,0
2017-02-19T05:30:23.029Z,0
2017-02-19T05:31:08.539Z,0
2017-02-19T05:32:08.557Z,0
2017-02-19T05:33:08.567Z,0
2017-02-19T05:34:08.615Z,0
2017-02-19T05:35:08.615Z,0
2017-02-19T05:36:08.652Z,0
2017-02-19T05:37:08.656Z,0
2017-02-19T05:38:23.200Z,0
2017-02-19T05:39:08.667Z,0
2017-02-19T05:40:08.721Z,0
2017-02-19T05:41:08.733Z,0
2017-02-19T05:42:23.249Z,0
2017-02-19T05:43:08.734Z,0
2017-02-19T05:45:08.792Z,0
2017-02-19T05:46:08.861Z,0
2017-02-19T05:47:23.339Z,0
2017-02-19T05:48:08.426Z,0
2017-02-19T05:49:08.847Z,0
2017-02-19T05:50:08.870Z,0
2017-02-19T05:51:23.367Z,0
2017-02-19T05:52:09.142Z,0
2017-02-19T05:53:08.877Z,0
2017-02-19T05:54:08.941Z,0
2017-02-19T05:55:23.444Z,0
2017-02-19T05:56:08.943Z,0
2017-02-19T05:58:23.490Z,0
2017-02-19T05:59:09.005Z,0
2017-02-19T06:00:23.537Z,0
2017-02-19T06:01:09.018Z,0
2017-02-19T06:02:23.570Z,0
2017-02-19T06:03:09.055Z,0
2017-02-19T06:04:09.074Z,0
2017-02-19T06:05:09.096Z,0
2017-02-19T06:06:09.475Z,0
2017-02-19T06:07:09.121Z,0
2017-02-19T06:08:23.679Z,0
2017-02-19T06:09:09.170Z,0
2017-02-19T06:10:09.187Z,0
2017-02-19T06:11:08.809Z,5
2017-02-19T06:12:38.236Z,5
2017-02-19T06:13:09.239Z,5
2017-02-19T06:14:23.746Z,5
2017-02-19T06:15:23.772Z,5
2017-02-19T06:16:09.252Z,5
2017-02-19T06:17:09.273Z,5
2017-02-19T06:18:09.317Z,5
2017-02-19T06:19:09.323Z,10
2017-02-19T06:20:09.356Z,10
2017-02-19T06:21:09.373Z,10
2017-02-19T06:22:09.380Z,10
2017-02-19T06:23:09.375Z,10
2017-02-19T06:24:09.387Z,10
2017-02-19T06:25:09.427Z,15
2017-02-19T06:26:09.453Z,15
2017-02-19T06:27:23.961Z,15
2017-02-19T06:28:09.455Z,15
2017-02-19T06:29:24.005Z,20
2017-02-19T06:30:09.477Z,20
2017-02-19T06:31:09.498Z,20
2017-02-19T06:32:09.520Z,25
2017-02-19T06:33:09.565Z,25
2017-02-19T06:35:09.624Z,30
2017-02-19T06:36:24.089Z,35
2017-02-19T06:37:09.620Z,35
2017-02-19T06:38:09.620Z,35
2017-02-19T06:39:09.654Z,35
2017-02-19T06:40:09.258Z,40
2017-02-19T06:41:09.668Z,50
2017-02-19T06:42:09.677Z,55
2017-02-19T06:43:09.692Z,50
2017-02-19T06:44:09.719Z,50
2017-02-19T06:45:09.729Z,50
2017-02-19T06:46:09.360Z,50
2017-02-19T06:47:09.772Z,55
2017-02-19T06:48:09.798Z,55
2017-02-19T06:49:09.824Z,60
2017-02-19T06:50:09.819Z,75
2017-02-19T06:51:09.830Z,80
2017-02-19T06:52:24.354Z,75
2017-02-19T06:54:09.505Z,80
2017-02-19T06:55:24.404Z,75
2017-02-19T06:56:09.930Z,80
2017-02-19T06:57:09.549Z,80
2017-02-19T06:58:09.941Z,90
2017-02-19T06:59:09.976Z,90
2017-02-19T07:00:10.016Z,95
2017-02-19T07:01:24.519Z,100
2017-02-19T07:02:24.524Z,100
2017-02-19T07:03:10.061Z,105
2017-02-19T07:04:09.648Z,110
2017-02-19T07:05:10.081Z,115
2017-02-19T07:06:10.083Z,140
2017-02-19T07:07:09.702Z,180
2017-02-19T07:08:09.707Z,230
2017-02-19T07:09:24.654Z,280
2017-02-19T07:10:10.142Z,290
2017-02-19T07:11:09.809Z,305
2017-02-19T07:14:09.825Z,310
2017-02-19T07:15:24.369Z,305
2017-02-19T07:16:09.858Z,300
2017-02-19T07:17:24.397Z,305
2017-02-19T07:18:09.909Z,295
2017-02-19T07:19:09.905Z,250
2017-02-19T07:20:10.326Z,185
2017-02-19T07:21:39.371Z,145
2017-02-19T07:22:10.356Z,125
2017-02-19T07:23:10.414Z,110
2017-02-19T07:25:10.419Z,80
2017-02-19T07:26:09.688Z,70
2017-02-19T07:27:10.497Z,65
2017-02-19T07:28:10.489Z,60
2017-02-19T07:29:10.509Z,55
2017-02-19T07:30:10.132Z,55
2017-02-19T07:31:10.137Z,50
2017-02-19T07:32:25.066Z,50
2017-02-19T07:33:25.074Z,55
2017-02-19T07:34:10.590Z,60
2017-02-19T07:35:10.593Z,65
2017-02-19T07:36:39.651Z,65
2017-02-19T07:37:10.283Z,65
2017-02-19T07:38:10.285Z,70
2017-02-19T07:39:25.202Z,75
2017-02-19T07:40:24.814Z,80
2017-02-19T07:41:10.731Z,80
2017-02-19T07:42:10.346Z,85
2017-02-19T07:43:10.364Z,80
2017-02-19T07:44:10.397Z,80
2017-02-19T07:45:24.916Z,85
2017-02-19T07:46:10.806Z,85
2017-02-19T07:47:10.816Z,95
2017-02-19T07:48:10.449Z,105
2017-02-19T07:49:25.405Z,115
2017-02-19T07:50:10.507Z,120
2017-02-19T07:51:10.514Z,125
2017-02-19T07:52:10.533Z,140
2017-02-19T07:53:10.536Z,155
2017-02-19T07:54:10.953Z,165
2017-02-19T07:55:25.479Z,180
2017-02-19T07:56:10.602Z,180
2017-02-19T07:57:11.000Z,180
2017-02-19T07:58:10.645Z,190
2017-02-19T07:59:25.552Z,215
2017-02-19T08:01:25.967Z,245
2017-02-19T08:02:11.112Z,260
2017-02-19T08:03:11.140Z,265
2017-02-19T08:04:25.665Z,260
2017-02-19T08:05:11.162Z,250
2017-02-19T08:06:11.180Z,245
2017-02-19T08:07:11.208Z,245
2017-02-19T08:08:11.207Z,245
2017-02-19T08:09:11.294Z,235
2017-02-19T08:10:10.853Z,215
2017-02-19T08:11:11.279Z,190
2017-02-19T08:12:11.271Z,170
2017-02-19T08:13:11.368Z,165
2017-02-19T08:14:25.870Z,160
2017-02-19T08:15:11.379Z,165
2017-02-19T08:16:11.374Z,165
2017-02-19T08:17:11.403Z,170
2017-02-19T08:18:11.020Z,170
2017-02-19T08:19:11.429Z,165
2017-02-19T08:20:11.075Z,175
2017-02-19T08:21:11.488Z,180
2017-02-19T08:22:11.112Z,175
2017-02-19T08:23:11.542Z,170
2017-02-19T08:24:26.039Z,165
2017-02-19T08:25:26.092Z,160
2017-02-19T08:26:11.571Z,160
2017-02-19T08:27:11.615Z,140
2017-02-19T08:28:11.228Z,135
2017-02-19T08:29:11.640Z,140
2017-02-19T08:30:11.652Z,140
2017-02-19T08:31:11.681Z,140
2017-02-19T08:32:11.316Z,140
2017-02-19T08:33:11.731Z,145
2017-02-19T08:34:11.738Z,145
2017-02-19T08:35:11.768Z,145
2017-02-19T08:36:26.275Z,150
2017-02-19T08:37:11.829Z,150
2017-02-19T08:38:26.332Z,155
2017-02-19T08:39:11.878Z,160
2017-02-19T08:40:11.061Z,170
2017-02-19T08:41:11.915Z,185
2017-02-19T08:42:11.882Z,190
2017-02-19T08:43:11.948Z,230
2017-02-19T08:44:26.439Z,245
2017-02-19T08:45:11.959Z,235
2017-02-19T08:46:11.992Z,235
2017-02-19T08:47:11.981Z,220
2017-02-19T08:48:12.016Z,225
2017-02-19T08:49:12.049Z,235
2017-02-19T08:50:12.059Z,235
2017-02-19T08:51:12.077Z,235
2017-02-19T08:52:26.588Z,190
2017-02-19T08:53:12.149Z,170
2017-02-19T08:54:12.127Z,150
2017-02-19T08:55:12.166Z,140
2017-02-19T08:56:11.788Z,145
2017-02-19T08:57:12.186Z,135
2017-02-19T08:58:12.232Z,125
2017-02-19T08:59:12.251Z,115
2017-02-19T09:00:26.768Z,110
2017-02-19T09:01:12.289Z,105
2017-02-19T09:02:12.281Z,105
2017-02-19T09:03:12.359Z,100
2017-02-19T09:04:12.327Z,100
2017-02-19T09:05:12.382Z,95
2017-02-19T09:06:12.395Z,95
2017-02-19T09:08:26.964Z,95
2017-02-19T09:09:12.441Z,95
2017-02-19T09:10:12.056Z,95
2017-02-19T09:11:12.519Z,95
2017-02-19T09:12:12.521Z,95
2017-02-19T09:13:27.033Z,100
2017-02-19T09:14:12.549Z,100
2017-02-19T09:15:27.083Z,100
2017-02-19T09:16:12.184Z,100
2017-02-19T09:17:12.600Z,100
2017-02-19T09:18:12.224Z,100
2017-02-19T09:19:27.198Z,100
2017-02-19T09:20:41.668Z,100
2017-02-19T09:22:12.720Z,100
2017-02-19T09:23:12.350Z,100
2017-02-19T09:24:41.761Z,100
2017-02-19T09:25:12.761Z,100
2017-02-19T09:26:12.390Z,100
2017-02-19T09:27:12.822Z,100
2017-02-19T09:28:26.934Z,100
2017-02-19T09:29:12.838Z,105
2017-02-19T09:30:12.063Z,105
2017-02-19T09:31:27.407Z,105
2017-02-19T09:32:27.404Z,105
2017-02-19T09:33:12.920Z,105
2017-02-19T09:34:27.448Z,110
2017-02-19T09:35:12.588Z,110
2017-02-19T09:36:27.479Z,110
2017-02-19T09:37:12.984Z,110
2017-02-19T09:38:12.637Z,110
2017-02-19T09:39:27.549Z,110
2017-02-19T09:40:27.161Z,110
2017-02-19T09:41:27.574Z,110
2017-02-19T09:42:12.692Z,110
2017-02-19T09:43:13.104Z,110
2017-02-19T09:44:13.127Z,105
2017-02-19T09:45:12.785Z,105
2017-02-19T09:46:12.771Z,105
2017-02-19T09:47:27.720Z,105
2017-02-19T09:48:12.826Z,100
2017-02-19T09:49:13.232Z,100
2017-02-19T09:51:12.877Z,95
2017-02-19T09:52:13.287Z,95
2017-02-19T09:53:13.302Z,95
2017-02-19T09:54:13.350Z,90
2017-02-19T09:55:12.948Z,90
2017-02-19T09:56:13.362Z,90
2017-02-19T09:57:13.428Z,90
2017-02-19T09:58:12.994Z,90
2017-02-19T09:59:13.438Z,90
2017-02-19T10:00:13.454Z,90
2017-02-19T10:01:27.966Z,90
2017-02-19T10:02:13.479Z,90
2017-02-19T10:03:28.012Z,90
2017-02-19T10:04:13.532Z,90
2017-02-19T10:05:13.545Z,90
2017-02-19T10:06:13.031Z,90
2017-02-19T10:07:13.193Z,90
2017-02-19T10:08:13.216Z,90
2017-02-19T10:09:13.621Z,90
2017-02-19T10:10:28.149Z,95
2017-02-19T10:11:28.172Z,95
2017-02-19T10:12:13.427Z,100
2017-02-19T10:13:13.315Z,95
2017-02-19T10:14:13.713Z,100
2017-02-19T10:15:28.269Z,100
2017-02-19T10:16:13.761Z,105
2017-02-19T10:17:13.777Z,105
2017-02-19T10:19:13.814Z,110
2017-02-19T10:20:13.820Z,115
2017-02-19T10:22:13.892Z,115
2017-02-19T10:23:28.405Z,115
2017-02-19T10:24:13.520Z,115
2017-02-19T10:25:13.927Z,115
2017-02-19T10:26:13.956Z,115
2017-02-19T10:27:28.505Z,115
2017-02-19T10:28:13.988Z,115
2017-02-19T10:29:13.626Z,115
2017-02-19T10:30:13.642Z,115
2017-02-19T10:31:14.063Z,115
2017-02-19T10:32:14.091Z,115
2017-02-19T10:33:14.108Z,115
2017-02-19T10:34:14.107Z,115
2017-02-19T10:35:14.148Z,115
2017-02-19T10:36:13.767Z,115
2017-02-19T10:37:14.188Z,115
2017-02-19T10:38:14.192Z,120
2017-02-19T10:39:14.205Z,120
2017-02-19T10:40:28.745Z,120
2017-02-19T10:41:14.267Z,120
2017-02-19T10:42:28.806Z,125
2017-02-19T10:43:28.795Z,125
2017-02-19T10:44:28.823Z,125
2017-02-19T10:45:14.364Z,125
2017-02-19T10:46:13.959Z,125
2017-02-19T10:48:28.908Z,125
2017-02-19T10:49:14.409Z,125
2017-02-19T10:50:14.436Z,125
2017-02-19T10:51:14.073Z,125
2017-02-19T10:52:28.996Z,120
2017-02-19T10:53:14.492Z,120
2017-02-19T10:54:14.502Z,120
2017-02-19T10:55:14.535Z,120
2017-02-19T10:56:14.166Z,120
2017-02-19T10:57:29.107Z,120
2017-02-19T10:58:14.364Z,120
2017-02-19T10:59:29.125Z,120
2017-02-19T11:00:14.243Z,120
2017-02-19T11:01:14.702Z,120
2017-02-19T11:02:29.201Z,120
2017-02-19T11:03:14.681Z,115
2017-02-19T11:04:14.310Z,115
2017-02-19T11:05:14.731Z,120
2017-02-19T11:06:14.353Z,115
2017-02-19T11:07:14.811Z,110
2017-02-19T11:08:14.402Z,110
2017-02-19T11:09:14.811Z,105
2017-02-19T11:10:14.844Z,105
2017-02-19T11:11:29.363Z,105
2017-02-19T11:12:14.884Z,105
2017-02-19T11:13:29.058Z,110
2017-02-19T11:14:29.438Z,110
2017-02-19T11:15:14.577Z,115
2017-02-19T11:16:14.585Z,115
2017-02-19T11:17:29.522Z,120
2017-02-19T11:19:15.054Z,125
2017-02-19T11:20:15.036Z,125
2017-02-19T11:21:15.056Z,125
2017-02-19T11:22:14.700Z,125
2017-02-19T11:23:29.220Z,130
2017-02-19T11:24:14.737Z,130
2017-02-19T11:25:14.756Z,130
2017-02-19T11:27:29.299Z,140
2017-02-19T11:28:14.833Z,140
2017-02-19T11:29:15.227Z,145
2017-02-19T11:30:14.457Z,145
2017-02-19T11:31:15.279Z,145
2017-02-19T11:32:14.513Z,140
2017-02-19T11:33:15.322Z,135
2017-02-19T11:34:14.938Z,135
2017-02-19T11:35:15.540Z,135
2017-02-19T11:36:29.885Z,140
2017-02-19T11:37:15.021Z,145
2017-02-19T11:38:29.540Z,150
2017-02-19T11:39:15.419Z,155
2017-02-19T11:40:15.060Z,150
2017-02-19T11:42:14.735Z,150
2017-02-19T11:43:15.532Z,155
2017-02-19T11:44:15.557Z,150
2017-02-19T11:46:44.603Z,150
2017-02-19T11:47:30.117Z,150
2017-02-19T11:48:15.236Z,145
2017-02-19T11:49:14.853Z,145
2017-02-19T11:51:30.189Z,140
2017-02-19T11:52:14.908Z,140
2017-02-19T11:53:30.238Z,135
2017-02-19T11:54:15.725Z,135
2017-02-19T11:55:15.754Z,135
2017-02-19T11:56:15.387Z,135
2017-02-19T11:57:15.826Z,140
2017-02-19T11:58:15.835Z,140
2017-02-19T11:59:15.881Z,140
2017-02-19T12:00:15.483Z,150
2017-02-19T12:01:15.896Z,150
2017-02-19T12:02:30.432Z,155
2017-02-19T12:03:30.480Z,160
2017-02-19T12:04:15.944Z,160
2017-02-19T12:05:15.581Z,150
2017-02-19T12:06:15.211Z,150
2017-02-19T12:07:15.628Z,145
2017-02-19T12:08:16.046Z,140
2017-02-19T12:09:16.079Z,140
2017-02-19T12:10:30.586Z,140
2017-02-19T12:11:16.133Z,130
2017-02-19T12:13:16.177Z,130
2017-02-19T12:14:30.701Z,130
2017-02-19T12:15:16.214Z,130
2017-02-19T12:16:15.819Z,130
2017-02-19T12:17:15.830Z,130
2017-02-19T12:18:30.749Z,130
2017-02-19T12:19:30.374Z,130
2017-02-19T12:20:15.883Z,125
2017-02-19T12:21:16.301Z,130
2017-02-19T12:22:15.552Z,130
2017-02-19T12:23:16.341Z,135
2017-02-19T12:24:15.984Z,130
2017-02-19T12:25:16.392Z,130
2017-02-19T12:26:16.400Z,130
2017-02-19T12:27:16.438Z,135
2017-02-19T12:28:16.440Z,140
2017-02-19T12:30:16.090Z,135
2017-02-19T12:31:16.501Z,135
2017-02-19T12:32:15.750Z,130
2017-02-19T12:33:16.152Z,140
2017-02-19T12:34:31.102Z,155
2017-02-19T12:35:16.631Z,145
2017-02-19T12:36:16.237Z,150
2017-02-19T12:37:16.249Z,170
2017-02-19T12:38:16.647Z,160
2017-02-19T12:39:16.290Z,150
2017-02-19T12:40:16.294Z,155
2017-02-19T12:41:16.709Z,140
2017-02-19T12:42:16.732Z,135
2017-02-19T12:43:16.757Z,135
2017-02-19T12:44:16.407Z,135
2017-02-19T12:45:16.407Z,135
2017-02-19T12:46:16.452Z,140
2017-02-19T12:48:16.454Z,155
2017-02-19T12:49:45.911Z,155
2017-02-19T12:50:31.033Z,145
2017-02-19T12:51:16.547Z,140
2017-02-19T12:52:16.947Z,130
2017-02-19T12:54:31.498Z,125
2017-02-19T12:55:17.028Z,120
2017-02-19T12:56:16.630Z,120
2017-02-19T12:57:31.576Z,115
2017-02-19T12:58:17.076Z,120
2017-02-19T12:59:17.105Z,120
2017-02-19T13:00:16.728Z,145
2017-02-19T13:01:17.141Z,135
2017-02-19T13:02:16.782Z,140
2017-02-19T13:03:16.789Z,160
2017-02-19T13:04:17.193Z,165
2017-02-19T13:05:16.828Z,165
2017-02-19T13:06:17.244Z,165
2017-02-19T13:07:17.274Z,140
2017-02-19T13:08:17.282Z,125
2017-02-19T13:09:31.817Z,120
2017-02-19T13:10:16.559Z,115
2017-02-19T13:11:17.332Z,110
2017-02-19T13:12:16.992Z,105
2017-02-19T13:13:16.999Z,105
2017-02-19T13:14:17.412Z,105
2017-02-19T13:15:17.427Z,105
2017-02-19T13:16:17.462Z,105
2017-02-19T13:17:31.986Z,105
2017-02-19T13:18:17.483Z,105
2017-02-19T13:19:17.522Z,100
2017-02-19T13:20:17.549Z,100
2017-02-19T13:21:32.076Z,100
2017-02-19T13:23:17.201Z,95
2017-02-19T13:24:32.167Z,95
2017-02-19T13:25:17.293Z,90
2017-02-19T13:26:17.277Z,90
2017-02-19T13:28:32.243Z,85
2017-02-19T13:29:17.709Z,85
2017-02-19T13:30:17.359Z,80
2017-02-19T13:31:17.366Z,80
2017-02-19T13:32:17.035Z,75
2017-02-19T13:33:32.351Z,75
2017-02-19T13:34:17.435Z,70
2017-02-19T13:35:17.850Z,70
2017-02-19T13:36:17.487Z,70
2017-02-19T13:37:32.412Z,65
2017-02-19T13:38:17.915Z,65
2017-02-19T13:39:17.532Z,65
2017-02-19T13:40:17.568Z,65
2017-02-19T13:41:32.493Z,70
2017-02-19T13:42:17.244Z,70
2017-02-19T13:43:17.626Z,70
2017-02-19T13:44:17.641Z,70
2017-02-19T13:45:17.672Z,70
2017-02-19T13:46:32.613Z,70
2017-02-19T13:47:17.733Z,70
2017-02-19T13:48:18.127Z,70
2017-02-19T13:49:17.745Z,70
2017-02-19T13:50:32.686Z,70
2017-02-19T13:51:17.804Z,65
2017-02-19T13:52:17.440Z,65
2017-02-19T13:53:32.750Z,65
2017-02-19T13:54:32.391Z,65
2017-02-19T13:55:18.267Z,65
2017-02-19T13:56:18.312Z,65
2017-02-19T13:57:17.935Z,65
2017-02-19T13:58:17.930Z,65
2017-02-19T13:59:18.341Z,65
2017-02-19T14:00:18.379Z,70
2017-02-19T14:01:18.403Z,70
2017-02-19T14:02:18.038Z,70
2017-02-19T14:03:18.451Z,70
2017-02-19T14:04:18.463Z,70
2017-02-19T14:05:32.989Z,75
2017-02-19T14:06:18.099Z,75
2017-02-19T14:08:32.670Z,80
2017-02-19T14:09:33.055Z,80
2017-02-19T14:10:18.566Z,75
2017-02-19T14:12:18.619Z,75
2017-02-19T14:13:18.641Z,75
2017-02-19T14:15:18.681Z,70
2017-02-19T14:16:18.333Z,70
2017-02-19T14:17:33.236Z,65
2017-02-19T14:18:18.745Z,65
2017-02-19T14:19:18.793Z,65
2017-02-19T14:20:47.802Z,65
2017-02-19T14:21:33.325Z,65
2017-02-19T14:22:18.478Z,60
2017-02-19T14:23:18.845Z,60
2017-02-19T14:24:33.389Z,60
2017-02-19T14:25:18.495Z,55
2017-02-19T14:26:18.904Z,55
2017-02-19T14:27:18.935Z,55
2017-02-19T14:28:18.588Z,50
2017-02-19T14:29:18.968Z,50
2017-02-19T14:30:19.026Z,50
2017-02-19T14:31:19.009Z,50
2017-02-19T14:32:19.025Z,50
2017-02-19T14:33:18.670Z,45
2017-02-19T14:34:18.719Z,45
2017-02-19T14:35:19.097Z,40
2017-02-19T14:36:33.235Z,35
2017-02-19T14:37:19.132Z,35
2017-02-19T14:38:19.160Z,30
2017-02-19T14:39:33.707Z,30
2017-02-19T14:40:18.805Z,25
2017-02-19T14:41:33.742Z,25
2017-02-19T14:42:19.224Z,25
2017-02-19T14:43:33.783Z,25
2017-02-19T14:44:33.818Z,25
2017-02-19T14:45:19.308Z,20
2017-02-19T14:46:18.560Z,20
2017-02-19T14:48:19.363Z,20
2017-02-19T14:49:18.991Z,20
2017-02-19T14:50:19.408Z,15
2017-02-19T14:51:19.429Z,15
2017-02-19T14:52:19.446Z,15
2017-02-19T14:54:19.102Z,15
2017-02-19T14:55:19.528Z,15
2017-02-19T14:56:34.018Z,20
2017-02-19T14:57:19.564Z,20
2017-02-19T14:58:19.178Z,20
2017-02-19T14:59:19.599Z,15
2017-02-19T15:00:19.619Z,15
2017-02-19T15:01:34.143Z,15
2017-02-19T15:02:19.654Z,15
2017-02-19T15:03:19.679Z,15
2017-02-19T15:04:19.289Z,15
2017-02-19T15:05:19.733Z,15
2017-02-19T15:06:19.327Z,15